Bloomfield, Kentucky
Current Conditions -  °F | °C
As of 3:53 AM on Wednesday 22 Oct 2014 (Local Time) from KLOU Reporting Station
Clear Clear  
Wind Chill: 43°   Ceiling: Unl
Heat Index: 45°   Visibility: 10mi
Dew Point: 39°   Wind: 5mph
Humidity: 80%   Direction: 360°N
Pressure: 30.21"   Gusts: NA
Location:  37.91°N, 85.32°W
Report Text: KLOU 220753Z AUTO 36004KT 10SM CLR 07/04 A3021 RMK AO2 SLP231 T00720039
Loading
Personal Weather Stations






























Interactive Weather Map
Tropical Storm Tracking
New forecast layout! Learn more

10-Day Weather Forecast

Advertisements
Track Severe Weather on mobile